weather.gov     
National Weather Service

Terminal Aerodrome Forecast
NWS Homepage
This page is being discontinued on March 12, 2014.
The same data is available at this site. Please update your bookmarks.
Thank you, and we apologize for the inconvenience.
Please send an email to SR-SRH.Webmaster@noaa.gov with any concerns.


Current Version
Previous Version:    01  02  03  04  05  06  07  08  09  10  11  12  13  14  15  16  17  18  19  20  21  22  23  24  25  26  27  28  29  30  
   31  32  33  34  35  36  37  38  39  40  41  
[Printable]
161
FTUS45 KABQ 222300
TAFLVS
TAF
KLVS 222331Z 2300/2324 17015KT P6SM VCSH SCT005 BKN010 OVC040
      TEMPO 2300/2303 3SM -RA BR BKN005
     FM230400 18010KT P6SM SCT004 OVC015
     FM230700 18010KT P6SM VCFG SCT001 OVC003
     FM231000 19008KT P6SM SCT003 BKN025
     FM231600 20009KT P6SM SCT030
     FM232100 20012G18KT P6SM SCT060=


U.S. Dept. of Commerce
NOAA National Weather Service
1325 East West Highway
Silver Spring, MD 20910
E-mail: w-nws.webmaster@noaa.gov
Page last modified: May 16, 2007
NATIONAL WEATHER SERVICE: for Safety, for Work, for Fun - FOR LIFE